Time;durP1;ratioP1;P1;durP2;ratioP2;P2;SDS_P1;SDS_P2;PMS_P1;PMS_P2;Temp;Humidity;BMP_temperature;BMP_pressure;BME280_temperature;BME280_humidity;BME280_pressure;Samples;Min_cycle;Max_cycle;Signal;HPM_P1;HPM_P2
2022/11/14 00:00:32;;;;;;;;;;;;;;;-143.57;100.00;51299.00;5081860;28;20057;-79
2022/11/14 00:03:17;;;;;;;;;;;;;;;-143.57;100.00;51263.22;5081241;28;20065;-78
2022/11/14 00:06:06;;;;;;;;;;;;;;;-143.57;100.00;51235.41;5065095;28;19971;-79
2022/11/14 00:08:52;;;;;;;;;;;;;;;-143.57;100.00;51263.22;5080595;28;20357;-79
2022/11/14 00:11:37;;;;;;;;;;;;;;;-143.57;100.00;51267.19;5080377;28;19951;-79
2022/11/14 00:14:22;;;;;;;;;;;;;;;-143.57;100.00;51297.03;5080143;28;20088;-79
2022/11/14 00:17:07;;;;;;;;;;;;;;;-143.57;100.00;51219.50;5080309;28;20144;-79
2022/11/14 00:19:54;;;;;;;;;;;;;;;-143.57;100.00;51219.50;5066532;28;19986;-79
2022/11/14 00:22:39;;;;;;;;;;;;;;;-143.57;100.00;51265.22;5080947;28;20371;-79
2022/11/14 00:25:24;;;;;;;;;;;;;;;-143.57;100.00;51267.19;5079665;28;20748;-79
2022/11/14 00:28:11;;;;;;;;;;;;;;;-143.57;100.00;51287.09;5067094;28;19935;-79
2022/11/14 00:30:56;;;;;;;;;;;;;;;-143.57;100.00;51237.38;5082075;28;19935;-79
2022/11/14 00:33:41;;;;;;;;;;;;;;;-143.57;100.00;51227.44;5081119;28;19935;-79
2022/11/14 00:36:26;;;;;;;;;;;;;;;-143.57;100.00;51243.34;5080368;28;19954;-78
2022/11/14 00:39:12;;;;;;;;;;;;;;;-143.57;100.00;51233.41;5079845;28;19930;-79
2022/11/14 00:41:58;;;;;;;;;;;;;;;-143.57;100.00;51295.03;5079246;28;20202;-79
2022/11/14 00:44:43;;;;;;;;;;;;;;;-143.57;100.00;51219.50;5080821;28;20354;-79
2022/11/14 00:47:29;;;;;;;;;;;;;;;-143.57;100.00;51239.38;5066320;28;19938;-79
2022/11/14 00:50:17;;;;;;;;;;;;;;;-143.57;100.00;51219.50;5066755;28;20319;-79
2022/11/14 00:53:03;;;;;;;;;;;;;;;-143.57;100.00;51227.44;5093706;28;20037;-79
2022/11/14 00:55:48;;;;;;;;;;;;;;;-143.57;100.00;51247.31;5065985;28;20462;-79
2022/11/14 00:58:33;;;;;;;;;;;;;;;-143.57;100.00;51235.41;5081171;28;19935;-79
2022/11/14 01:01:20;;;;;;;;;;;;;;;-143.57;100.00;51255.28;5082212;28;19943;-79
2022/11/14 01:04:05;;;;;;;;;;;;;;;-143.57;100.00;51223.47;5080036;28;20569;-80
2022/11/14 01:06:51;;;;;;;;;;;;;;;-143.57;100.00;51271.19;5079716;28;19935;-79
2022/11/14 01:09:36;;;;;;;;;;;;;;;-143.57;100.00;51223.47;5081327;28;20066;-79
2022/11/14 01:12:21;;;;;;;;;;;;;;;-143.57;100.00;51257.25;5080752;28;19930;-79
2022/11/14 01:15:07;;;;;;;;;;;;;;;-143.57;100.00;51207.56;5080934;28;20434;-79
2022/11/14 01:17:52;;;;;;;;;;;;;;;-143.57;100.00;51243.34;5081566;28;20734;-79
2022/11/14 01:20:41;;;;;;;;;;;;;;;-143.57;100.00;51231.41;5080695;28;19932;-79
2022/11/14 01:23:26;;;;;;;;;;;;;;;-143.57;100.00;51267.19;5081461;28;19935;-79
2022/11/14 01:26:12;;;;;;;;;;;;;;;-143.57;100.00;51245.34;5079862;28;19935;-79
2022/11/14 01:28:58;;;;;;;;;;;;;;;-143.57;100.00;51275.16;5079286;28;19931;-79
2022/11/14 01:31:43;;;;;;;;;;;;;;;-143.57;100.00;51273.16;5079531;28;20013;-79
2022/11/14 01:34:28;;;;;;;;;;;;;;;-143.57;100.00;51295.03;5079455;28;20073;-79
2022/11/14 01:37:13;;;;;;;;;;;;;;;-143.57;100.00;51279.13;5068435;28;19931;-79
2022/11/14 01:39:59;;;;;;;;;;;;;;;-143.57;100.00;51239.38;5084306;28;20348;-79
2022/11/14 01:43:03;;;;;;;;;;;;;;;-143.57;100.00;51235.41;5084626;28;19981;-79
2022/11/14 01:46:00;;;;;;;;;;;;;;;-143.57;100.00;51231.41;5083163;28;19935;-79
2022/11/14 01:49:05;;;;;;;;;;;;;;;-143.57;100.00;51235.41;5083124;28;20458;-78
2022/11/14 01:51:56;;;;;;;;;;;;;;;-143.57;100.00;51239.38;5085265;28;19934;-79
2022/11/14 01:54:44;;;;;;;;;;;;;;;-143.57;100.00;51259.25;5086464;28;20328;-77
2022/11/14 01:57:32;;;;;;;;;;;;;;;-143.57;100.00;51271.19;5084089;28;19974;-76
2022/11/14 02:00:17;;;;;;;;;;;;;;;-143.57;100.00;51263.22;5070549;28;19939;-77
2022/11/14 02:03:02;;;;;;;;;;;;;;;-143.57;100.00;51267.19;5085192;28;19935;-76
2022/11/14 02:05:49;;;;;;;;;;;;;;;-143.57;100.00;51277.16;5082999;28;20065;-76
2022/11/14 02:08:35;;;;;;;;;;;;;;;-143.57;100.00;51215.53;5085337;28;19935;-76
2022/11/14 02:11:20;;;;;;;;;;;;;;;-143.57;100.00;51239.38;5071075;28;20021;-76
2022/11/14 02:14:06;;;;;;;;;;;;;;;-143.57;100.00;51279.13;5084151;28;20290;-76
2022/11/14 02:16:51;;;;;;;;;;;;;;;-143.57;100.00;51259.25;5082377;28;20061;-76
2022/11/14 02:20:03;;;;;;;;;;;;;;;-143.57;100.00;51283.09;5088472;28;19935;-75
2022/11/14 02:22:49;;;;;;;;;;;;;;;-143.57;100.00;51203.59;5082237;28;20401;-76
2022/11/14 02:25:35;;;;;;;;;;;;;;;-143.57;100.00;51287.09;5083200;28;19934;-76
2022/11/14 02:28:21;;;;;;;;;;;;;;;-143.57;100.00;51263.22;5069195;28;19931;-76
2022/11/14 02:31:05;;;;;;;;;;;;;;;-143.57;100.00;51243.34;5068609;28;19935;-76
2022/11/14 02:33:51;;;;;;;;;;;;;;;-143.57;100.00;51263.22;5081904;28;19939;-76
2022/11/14 02:36:36;;;;;;;;;;;;;;;-143.57;100.00;51279.13;5066647;28;19935;-76
2022/11/14 02:39:22;;;;;;;;;;;;;;;-143.57;100.00;51299.00;5081955;28;19935;-76
2022/11/14 02:42:07;;;;;;;;;;;;;;;-143.57;100.00;51239.38;5083188;28;20411;-75
2022/11/14 02:44:52;;;;;;;;;;;;;;;-143.57;100.00;51279.13;5091986;28;19939;-76
2022/11/14 02:47:37;;;;;;;;;;;;;;;-143.57;100.00;51263.22;5084016;28;19962;-76
2022/11/14 02:50:22;;;;;;;;;;;;;;;-143.57;100.00;51303.00;5082424;28;20174;-76
2022/11/14 02:53:07;;;;;;;;;;;;;;;-143.57;100.00;51279.13;5071673;28;20183;-76
2022/11/14 02:55:53;;;;;;;;;;;;;;;-143.57;100.00;51275.16;5082285;28;20411;-76
2022/11/14 02:58:38;;;;;;;;;;;;;;;-143.57;100.00;51291.06;5067497;28;21162;-76
2022/11/14 03:01:23;;;;;;;;;;;;;;;-143.57;100.00;51287.09;5081821;28;20602;-76
2022/11/14 03:04:08;;;;;;;;;;;;;;;-143.57;100.00;51275.16;5081466;28;19939;-76
2022/11/14 03:06:54;;;;;;;;;;;;;;;-143.57;100.00;51225.47;5082108;28;19935;-76
2022/11/14 03:09:39;;;;;;;;;;;;;;;-143.57;100.00;51275.16;5067171;28;19950;-76
2022/11/14 03:12:25;;;;;;;;;;;;;;;-143.57;100.00;51259.25;5083275;28;20558;-76
2022/11/14 03:15:10;;;;;;;;;;;;;;;-143.57;100.00;51243.34;5081048;28;19935;-76
2022/11/14 03:17:56;;;;;;;;;;;;;;;-143.57;100.00;51293.03;5080464;28;20125;-76
2022/11/14 03:20:41;;;;;;;;;;;;;;;-143.57;100.00;51303.00;5082006;28;20062;-76
2022/11/14 03:23:27;;;;;;;;;;;;;;;-143.57;100.00;51287.09;5066632;28;20073;-76
2022/11/14 03:26:13;;;;;;;;;;;;;;;-143.57;100.00;51263.22;5081867;28;19935;-76
2022/11/14 03:28:58;;;;;;;;;;;;;;;-143.57;100.00;51275.16;5065999;28;19946;-76
2022/11/14 03:31:43;;;;;;;;;;;;;;;-143.57;100.00;51243.34;5080623;28;19945;-76
2022/11/14 03:34:28;;;;;;;;;;;;;;;-143.57;100.00;51255.28;5069694;28;19952;-76
2022/11/14 03:37:13;;;;;;;;;;;;;;;-143.57;100.00;51259.25;5081784;28;20909;-75
2022/11/14 03:39:58;;;;;;;;;;;;;;;-143.57;100.00;51239.38;5082516;28;19938;-76
2022/11/14 03:42:43;;;;;;;;;;;;;;;-143.57;100.00;51283.09;5082520;28;20036;-75
2022/11/14 03:45:29;;;;;;;;;;;;;;;-143.57;100.00;51269.19;5080878;28;19954;-76
2022/11/14 03:48:14;;;;;;;;;;;;;;;-143.57;100.00;51251.31;5081090;28;20707;-76
2022/11/14 03:51:00;;;;;;;;;;;;;;;-143.57;100.00;51247.31;5080717;28;20384;-76
2022/11/14 03:53:45;;;;;;;;;;;;;;;-143.57;100.00;51271.19;5083330;28;20333;-76
2022/11/14 03:56:30;;;;;;;;;;;;;;;-143.57;100.00;51243.34;5081311;28;20482;-76
2022/11/14 03:59:15;;;;;;;;;;;;;;;-143.57;100.00;51273.16;5080866;28;19931;-76
2022/11/14 04:02:01;;;;;;;;;;;;;;;-143.57;100.00;51271.19;5066607;28;19935;-76
2022/11/14 04:04:46;;;;;;;;;;;;;;;-143.57;100.00;51279.13;5066382;28;20338;-76
2022/11/14 04:07:31;;;;;;;;;;;;;;;-143.57;100.00;51291.06;5065490;28;19931;-76
2022/11/14 04:10:17;;;;;;;;;;;;;;;-143.57;100.00;51283.09;5080423;28;20352;-76
2022/11/14 04:13:03;;;;;;;;;;;;;;;-143.57;100.00;51277.16;5079853;28;19948;-76
2022/11/14 04:15:56;;;;;;;;;;;;;;;-143.57;100.00;51275.16;5093995;28;19939;-76
2022/11/14 04:18:41;;;;;;;;;;;;;;;-143.57;100.00;51287.09;5067236;28;19930;-76
2022/11/14 04:21:27;;;;;;;;;;;;;;;-143.57;100.00;51295.03;5078838;28;19975;-76
2022/11/14 04:24:12;;;;;;;;;;;;;;;-143.57;100.00;51291.06;5069517;28;19935;-76
2022/11/14 04:26:57;;;;;;;;;;;;;;;-143.57;100.00;51245.34;5086124;28;19935;-77
2022/11/14 04:29:42;;;;;;;;;;;;;;;-143.57;100.00;51295.03;5080829;28;20416;-76
2022/11/14 04:32:28;;;;;;;;;;;;;;;-143.57;100.00;51328.81;5081186;28;20093;-76
2022/11/14 04:35:13;;;;;;;;;;;;;;;-143.57;100.00;51283.09;5067079;28;19935;-76
2022/11/14 04:37:59;;;;;;;;;;;;;;;-143.57;100.00;51287.09;5068357;28;19935;-76
2022/11/14 04:40:48;;;;;;;;;;;;;;;-143.57;100.00;51283.09;5079744;28;19947;-76
2022/11/14 04:43:35;;;;;;;;;;;;;;;-143.57;100.00;51299.00;5079871;28;20713;-76
2022/11/14 04:46:21;;;;;;;;;;;;;;;-143.57;100.00;51279.13;5080810;28;19955;-76
2022/11/14 04:49:06;;;;;;;;;;;;;;;-143.57;100.00;51263.22;5070201;28;20628;-76
2022/11/14 04:51:51;;;;;;;;;;;;;;;-143.57;100.00;51263.22;5066834;28;19963;-76
2022/11/14 04:54:36;;;;;;;;;;;;;;;-143.57;100.00;51259.25;5080683;28;19935;-76
2022/11/14 04:57:22;;;;;;;;;;;;;;;-143.57;100.00;51251.31;5081007;28;20017;-76
2022/11/14 05:00:07;;;;;;;;;;;;;;;-143.57;100.00;51269.19;5081447;28;20030;-76
2022/11/14 05:02:53;;;;;;;;;;;;;;;-143.57;100.00;51293.03;5080259;28;20058;-76
2022/11/14 05:05:38;;;;;;;;;;;;;;;-143.57;100.00;51277.16;5097358;28;20012;-76
2022/11/14 05:08:26;;;;;;;;;;;;;;;-143.57;100.00;51215.53;5069472;28;20000;-75
2022/11/14 05:11:16;;;;;;;;;;;;;;;-143.57;100.00;51263.22;5084879;28;20041;-74
2022/11/14 05:14:01;;;;;;;;;;;;;;;-143.57;100.00;51277.16;5084349;28;19935;-74
2022/11/14 05:16:46;;;;;;;;;;;;;;;-143.57;100.00;51247.31;5070335;28;19932;-74
2022/11/14 05:19:31;;;;;;;;;;;;;;;-143.57;100.00;51279.13;5084860;28;19935;-73
2022/11/14 05:22:17;;;;;;;;;;;;;;;-143.57;100.00;51291.06;5082917;28;19935;-74
2022/11/14 05:25:02;;;;;;;;;;;;;;;-143.57;100.00;51263.22;5112109;28;19974;-74
2022/11/14 05:27:48;;;;;;;;;;;;;;;-143.57;100.00;51287.09;5112353;28;20015;-74
2022/11/14 05:30:33;;;;;;;;;;;;;;;-143.57;100.00;51271.19;5097729;28;19975;-74
2022/11/14 05:33:18;;;;;;;;;;;;;;;-143.57;100.00;51283.09;5112114;28;19943;-74
2022/11/14 05:36:08;;;;;;;;;;;;;;;-143.57;100.00;51263.22;5111378;28;19995;-74
2022/11/14 05:38:54;;;;;;;;;;;;;;;-143.57;100.00;51287.09;5098560;28;19950;-74
2022/11/14 05:41:40;;;;;;;;;;;;;;;-143.57;100.00;51295.03;5086088;28;19935;-75
2022/11/14 05:44:28;;;;;;;;;;;;;;;-143.57;100.00;51275.16;5084215;28;19931;-82
2022/11/14 05:47:13;;;;;;;;;;;;;;;-143.57;100.00;51233.41;5083874;28;19985;-69
2022/11/14 05:49:58;;;;;;;;;;;;;;;-143.57;100.00;51279.13;5084398;28;19935;-74
2022/11/14 05:52:43;;;;;;;;;;;;;;;-143.57;100.00;51273.16;5086792;28;20347;-72
2022/11/14 05:55:29;;;;;;;;;;;;;;;-143.57;100.00;51299.00;5067705;28;20408;-70
2022/11/14 05:58:14;;;;;;;;;;;;;;;-143.57;100.00;51283.09;5082745;28;19945;-71
2022/11/14 06:01:07;;;;;;;;;;;;;;;-143.57;100.00;51301.00;5081411;28;19939;-72
2022/11/14 06:03:52;;;;;;;;;;;;;;;-143.57;100.00;51291.06;5082911;28;20371;-71
2022/11/14 06:06:38;;;;;;;;;;;;;;;-143.57;100.00;51271.19;5082305;28;20537;-71
2022/11/14 06:09:22;;;;;;;;;;;;;;;-143.57;100.00;51301.00;5083809;28;20423;-72
2022/11/14 06:12:08;;;;;;;;;;;;;;;-143.57;100.00;51275.16;5066306;28;19930;-71
2022/11/14 06:14:53;;;;;;;;;;;;;;;-143.57;100.00;51283.09;5081380;28;19951;-71
2022/11/14 06:17:37;;;;;;;;;;;;;;;-143.57;100.00;51283.09;5083026;28;20021;-71
2022/11/14 06:20:22;;;;;;;;;;;;;;;-143.57;100.00;51259.25;5081040;28;20378;-71
2022/11/14 06:23:07;;;;;;;;;;;;;;;-143.57;100.00;51295.03;5082232;28;19951;-71
2022/11/14 06:26:00;;;;;;;;;;;;;;;-143.57;100.00;51247.31;5079174;28;20000;-71
2022/11/14 06:28:45;;;;;;;;;;;;;;;-143.57;100.00;51299.00;5080405;28;20081;-71
2022/11/14 06:31:30;;;;;;;;;;;;;;;-143.57;100.00;51241.34;5082480;28;20093;-71
2022/11/14 06:34:15;;;;;;;;;;;;;;;-143.57;100.00;51304.97;5081816;28;19973;-72
2022/11/14 06:37:00;;;;;;;;;;;;;;;-143.57;100.00;51303.00;5083507;28;20442;-72
2022/11/14 06:39:45;;;;;;;;;;;;;;;-143.57;100.00;51295.03;5082913;28;19931;-72
2022/11/14 06:42:30;;;;;;;;;;;;;;;-143.57;100.00;51299.00;5082862;28;20073;-71
2022/11/14 06:45:15;;;;;;;;;;;;;;;-143.57;100.00;51295.03;5084754;28;19931;-72
2022/11/14 06:48:00;;;;;;;;;;;;;;;-143.57;100.00;51279.13;5082030;28;20474;-71
2022/11/14 06:50:53;;;;;;;;;;;;;;;-143.57;100.00;51310.94;5083486;28;20009;-72
2022/11/14 06:53:39;;;;;;;;;;;;;;;-143.57;100.00;51306.97;5083014;28;19934;-71
2022/11/14 06:56:24;;;;;;;;;;;;;;;-143.57;100.00;51295.03;5081266;28;20050;-71
2022/11/14 06:59:09;;;;;;;;;;;;;;;-143.57;100.00;51287.09;5066071;28;19935;-71
2022/11/14 07:01:54;;;;;;;;;;;;;;;-143.57;100.00;51287.09;5081772;28;19998;-72
2022/11/14 07:04:39;;;;;;;;;;;;;;;-143.57;100.00;51283.09;5081930;28;20433;-72
2022/11/14 07:07:24;;;;;;;;;;;;;;;-143.57;100.00;51295.03;5065699;28;19935;-71
2022/11/14 07:10:13;;;;;;;;;;;;;;;-143.57;100.00;51295.03;5081747;28;20424;-71
2022/11/14 07:12:58;;;;;;;;;;;;;;;-143.57;100.00;51271.19;5080628;28;20492;-71
2022/11/14 07:15:54;;;;;;;;;;;;;;;-143.57;100.00;51291.06;5082451;28;20036;-71
2022/11/14 07:18:39;;;;;;;;;;;;;;;-143.57;100.00;51267.19;5081201;28;20293;-72
2022/11/14 07:21:24;;;;;;;;;;;;;;;-143.57;100.00;51259.25;5082520;28;20331;-72
2022/11/14 07:24:10;;;;;;;;;;;;;;;-143.57;100.00;51287.09;5081751;28;19935;-72
2022/11/14 07:26:55;;;;;;;;;;;;;;;-143.57;100.00;51299.00;5081064;28;21470;-71
2022/11/14 07:29:42;;;;;;;;;;;;;;;-143.57;100.00;51310.94;5065883;28;20379;-73
2022/11/14 07:32:27;;;;;;;;;;;;;;;-143.57;100.00;51303.00;5082345;28;19939;-72
2022/11/14 07:35:12;;;;;;;;;;;;;;;-143.57;100.00;51303.00;5083905;28;20065;-72
2022/11/14 07:38:01;;;;;;;;;;;;;;;-143.57;100.00;51287.09;5080750;28;20066;-73
2022/11/14 07:40:56;;;;;;;;;;;;;;;-143.57;100.00;51318.88;5068154;28;20077;-72
2022/11/14 07:43:44;;;;;;;;;;;;;;;-143.57;100.00;51330.81;5080258;28;19935;-73
2022/11/14 07:46:29;;;;;;;;;;;;;;;-143.57;100.00;51338.78;5078601;28;19951;-72
2022/11/14 07:49:14;;;;;;;;;;;;;;;-143.57;100.00;51318.88;5080350;28;19938;-72
2022/11/14 07:52:00;;;;;;;;;;;;;;;-143.57;100.00;51314.91;5079966;28;20199;-72
2022/11/14 07:54:45;;;;;;;;;;;;;;;-143.57;100.00;51295.03;5080728;28;19931;-72
2022/11/14 07:57:30;;;;;;;;;;;;;;;-143.57;100.00;51275.16;5083222;28;20527;-72
2022/11/14 08:00:22;;;;;;;;;;;;;;;-143.57;100.00;51279.13;5080822;28;19966;-72
2022/11/14 08:03:07;;;;;;;;;;;;;;;-143.57;100.00;51318.88;5082285;28;19934;-72
2022/11/14 08:05:58;;;;;;;;;;;;;;;-143.57;100.00;51297.03;5080519;28;19938;-72
2022/11/14 08:08:44;;;;;;;;;;;;;;;-143.57;100.00;51297.03;5079015;28;19935;-72
2022/11/14 08:11:48;;;;;;;;;;;;;;;-143.57;100.00;51299.00;5079932;28;20641;-72
2022/11/14 08:14:33;;;;;;;;;;;;;;;-143.57;100.00;51304.97;5080747;28;19963;-72
2022/11/14 08:17:19;;;;;;;;;;;;;;;-143.57;100.00;51265.22;5079858;28;19931;-72
2022/11/14 08:20:06;;;;;;;;;;;;;;;-143.57;100.00;51297.03;5083144;28;19935;-72
2022/11/14 08:23:00;;;;;;;;;;;;;;;-143.57;100.00;51279.13;5081273;28;19934;-72
2022/11/14 08:25:45;;;;;;;;;;;;;;;-143.57;100.00;51297.03;5080750;28;19931;-72
2022/11/14 08:28:31;;;;;;;;;;;;;;;-143.57;100.00;51322.88;5071405;28;19932;-72
2022/11/14 08:31:17;;;;;;;;;;;;;;;-143.57;100.00;51295.03;5084255;28;19950;-73
2022/11/14 08:34:02;;;;;;;;;;;;;;;-143.57;100.00;51287.09;5081310;28;20080;-73
2022/11/14 08:36:48;;;;;;;;;;;;;;;-143.57;100.00;51295.03;5081359;28;20447;-73
2022/11/14 08:39:33;;;;;;;;;;;;;;;-143.57;100.00;51295.03;5079782;28;19935;-74
2022/11/14 08:42:19;;;;;;;;;;;;;;;-143.57;100.00;51310.94;5069623;28;20368;-73
2022/11/14 08:45:04;;;;;;;;;;;;;;;-143.57;100.00;51291.06;5082631;28;20024;-76
2022/11/14 08:47:50;;;;;;;;;;;;;;;-143.57;100.00;51318.88;5085112;28;20070;-74
2022/11/14 08:50:35;;;;;;;;;;;;;;;-143.57;100.00;51295.03;5084299;28;19942;-74
2022/11/14 08:53:20;;;;;;;;;;;;;;;-143.57;100.00;51287.09;5087363;28;19935;-73
2022/11/14 08:56:05;;;;;;;;;;;;;;;-143.57;100.00;51281.13;5083601;28;19930;-73
2022/11/14 08:58:51;;;;;;;;;;;;;;;-143.57;100.00;51310.94;5086093;28;19947;-75
2022/11/14 09:01:36;;;;;;;;;;;;;;;-143.57;100.00;51285.09;5084740;28;19935;-72
2022/11/14 09:04:21;;;;;;;;;;;;;;;-143.57;100.00;51275.16;5084509;28;20029;-70
2022/11/14 09:07:07;;;;;;;;;;;;;;;-143.57;100.00;51295.03;5088583;28;20312;-73
2022/11/14 09:09:52;;;;;;;;;;;;;;;-143.57;100.00;51306.97;5086254;28;19955;-73
2022/11/14 09:12:37;;;;;;;;;;;;;;;-143.57;100.00;51299.00;5087358;28;20423;-73
2022/11/14 09:15:22;;;;;;;;;;;;;;;-143.57;100.00;51312.94;5085265;28;20001;-70
2022/11/14 09:18:08;;;;;;;;;;;;;;;-143.57;100.00;51306.97;5082070;28;19935;-70
2022/11/14 09:20:58;;;;;;;;;;;;;;;-143.57;100.00;51303.00;5083245;28;19935;-70
2022/11/14 09:23:45;;;;;;;;;;;;;;;-143.57;100.00;51263.22;5081691;28;20458;-71
2022/11/14 09:26:30;;;;;;;;;;;;;;;-143.57;100.00;51279.13;5081828;28;19935;-70
2022/11/14 09:29:17;;;;;;;;;;;;;;;-143.57;100.00;51299.00;5082889;28;20345;-70
2022/11/14 09:32:03;;;;;;;;;;;;;;;-143.57;100.00;51316.91;5082533;28;19931;-70
2022/11/14 09:34:48;;;;;;;;;;;;;;;-143.57;100.00;51271.19;5082797;28;19938;-70
2022/11/14 09:37:33;;;;;;;;;;;;;;;-143.57;100.00;51297.03;5083434;28;20065;-70
2022/11/14 09:40:18;;;;;;;;;;;;;;;-143.57;100.00;51279.13;5081043;28;19931;-70
2022/11/14 09:43:33;;;;;;;;;;;;;;;-143.57;100.00;51318.88;5082712;28;19935;-70
2022/11/14 09:46:18;;;;;;;;;;;;;;;-143.57;100.00;51283.09;5082347;28;19931;-71
2022/11/14 09:49:07;;;;;;;;;;;;;;;-143.57;100.00;51281.13;5081247;28;19932;-71
2022/11/14 09:51:58;;;;;;;;;;;;;;;-143.57;100.00;51287.09;5081103;28;20424;-71
2022/11/14 09:55:16;;;;;;;;;;;;;;;-143.57;100.00;51275.16;5080301;28;19931;-71
2022/11/14 09:58:02;;;;;;;;;;;;;;;-143.57;100.00;51310.94;5032780;28;20350;-73
2022/11/14 10:00:57;;;;;;;;;;;;;;;-143.57;100.00;51287.09;5082882;28;19935;-70
2022/11/14 10:03:45;;;;;;;;;;;;;;;-143.57;100.00;51283.09;5083531;28;20104;-70
2022/11/14 10:06:49;;;;;;;;;;;;;;;-143.57;100.00;51287.09;5081705;28;20328;-70
2022/11/14 10:10:01;;;;;;;;;;;;;;;-143.57;100.00;51322.88;5080847;28;19939;-73
2022/11/14 10:13:02;;;;;;;;;;;;;;;-143.57;100.00;51303.00;5082819;28;19934;-72
2022/11/14 10:15:56;;;;;;;;;;;;;;;-143.57;100.00;51297.03;5082420;28;19935;-71
2022/11/14 10:18:48;;;;;;;;;;;;;;;-143.57;100.00;51267.19;5081907;28;19930;-71
2022/11/14 10:21:42;;;;;;;;;;;;;;;-143.57;100.00;51306.97;5081869;28;19955;-71
2022/11/14 10:24:45;;;;;;;;;;;;;;;-143.57;100.00;51291.06;5081817;28;20408;-71
2022/11/14 10:28:03;;;;;;;;;;;;;;;-143.57;100.00;51283.09;5082055;28;20357;-73
2022/11/14 10:30:59;;;;;;;;;;;;;;;-143.57;100.00;51310.94;5043001;28;19974;-74
2022/11/14 10:33:51;;;;;;;;;;;;;;;-143.57;100.00;51310.94;5080658;28;20314;-73
2022/11/14 10:36:45;;;;;;;;;;;;;;;-143.57;100.00;51295.03;5084125;28;20062;-74
2022/11/14 10:39:30;;;;;;;;;;;;;;;-143.57;100.00;51247.31;5083204;28;20582;-73
2022/11/14 10:42:21;;;;;;;;;;;;;;;-143.57;100.00;51287.09;5080684;28;19938;-74
2022/11/14 10:45:25;;;;;;;;;;;;;;;-143.57;100.00;51287.09;5079979;28;20001;-72
2022/11/14 10:48:30;;;;;;;;;;;;;;;-143.57;100.00;51283.09;5081411;28;19996;-72
2022/11/14 10:51:16;;;;;;;;;;;;;;;-143.57;100.00;51303.00;5081221;28;20081;-72
2022/11/14 10:54:04;;;;;;;;;;;;;;;-143.57;100.00;51281.13;5081808;28;20008;-69
2022/11/14 10:56:50;;;;;;;;;;;;;;;-143.57;100.00;51299.00;5083005;28;19935;-71
2022/11/14 10:59:35;;;;;;;;;;;;;;;-143.57;100.00;51332.81;5082062;28;19939;-71
2022/11/14 11:02:20;;;;;;;;;;;;;;;-143.57;100.00;51293.03;5084141;28;20464;-72
2022/11/14 11:05:16;;;;;;;;;;;;;;;-143.57;100.00;51287.09;5080716;28;19935;-70
2022/11/14 11:11:28;;;;;;;;;;;;;;;-143.57;100.00;51235.41;5077453;28;19951;-69
2022/11/14 11:14:18;;;;;;;;;;;;;;;-143.57;100.00;51299.00;5078562;28;19938;-70
2022/11/14 11:17:07;;;;;;;;;;;;;;;-143.57;100.00;51287.09;5063338;28;20048;-70
2022/11/14 11:19:53;;;;;;;;;;;;;;;-143.57;100.00;51271.19;5079463;28;19986;-70
2022/11/14 11:22:38;;;;;;;;;;;;;;;-143.57;100.00;51306.97;5080312;28;20063;-69
2022/11/14 11:25:25;;;;;;;;;;;;;;;-143.57;100.00;51287.09;5064404;28;19935;-70
2022/11/14 11:28:12;;;;;;;;;;;;;;;-143.57;100.00;51273.16;5079697;28;20088;-75
2022/11/14 11:30:57;;;;;;;;;;;;;;;-143.57;100.00;51295.03;5066764;28;19938;-76
2022/11/14 11:33:42;;;;;;;;;;;;;;;-143.57;100.00;51275.16;5068029;28;19980;-75
2022/11/14 11:36:30;;;;;;;;;;;;;;;-143.57;100.00;51283.09;5065567;28;20389;-77
2022/11/14 11:39:22;;;;;;;;;;;;;;;-143.57;100.00;51269.19;5081894;28;19935;-75
2022/11/14 11:42:11;;;;;;;;;;;;;;;-143.57;100.00;51314.91;5084570;28;19951;-75
2022/11/14 11:44:59;;;;;;;;;;;;;;;-143.57;100.00;51303.00;5080367;28;19939;-76
2022/11/14 11:47:55;;;;;;;;;;;;;;;-143.57;100.00;51285.09;5080526;28;20362;-76
2022/11/14 11:50:40;;;;;;;;;;;;;;;-143.57;100.00;51267.19;5082617;28;19961;-75
2022/11/14 11:53:55;;;;;;;;;;;;;;;-143.57;100.00;51299.00;5063953;28;19996;-75
2022/11/14 11:56:43;;;;;;;;;;;;;;;-143.57;100.00;51299.00;5080455;28;19935;-75
2022/11/14 11:59:41;;;;;;;;;;;;;;;-143.57;100.00;51295.03;5079252;28;20353;-74
2022/11/14 12:02:27;;;;;;;;;;;;;;;-143.57;100.00;51291.06;5065181;28;20030;-76
2022/11/14 12:05:18;;;;;;;;;;;;;;;-143.57;100.00;51295.03;5080186;28;20325;-74
2022/11/14 12:08:23;;;;;;;;;;;;;;;-143.57;100.00;51299.00;5081877;28;20313;-76
2022/11/14 12:11:10;;;;;;;;;;;;;;;-143.57;100.00;51295.03;5088645;28;20324;-76
2022/11/14 12:14:03;;;;;;;;;;;;;;;-143.57;100.00;51287.09;5079763;28;20374;-76
2022/11/14 12:17:00;;;;;;;;;;;;;;;-143.57;100.00;51295.03;5080132;28;19954;-76
2022/11/14 12:19:52;;;;;;;;;;;;;;;-143.57;100.00;51279.13;5080117;28;20348;-76
2022/11/14 12:23:07;;;;;;;;;;;;;;;-143.57;100.00;51306.97;5082204;28;19935;-75
2022/11/14 12:25:52;;;;;;;;;;;;;;;-143.57;98.06;51281.13;5077680;28;20525;-76
2022/11/14 12:28:44;;;;;;;;;;;;;;;-143.57;93.71;51267.19;5082910;28;20054;-76
2022/11/14 12:31:32;;;;;;;;;;;;;;;-143.57;62.72;51287.09;5082948;28;20582;-76
2022/11/14 12:34:23;;;;;;;;;;;;;;;-143.57;60.85;51263.22;5082613;28;19980;-76
2022/11/14 12:37:10;;;;;;;;;;;;;;;-143.57;56.59;51263.22;5083484;28;20377;-76
2022/11/14 12:39:57;;;;;;;;;;;;;;;-143.57;52.91;51239.38;5085269;28;19938;-76
2022/11/14 12:42:49;;;;;;;;;;;;;;;-143.57;52.94;51267.19;5088543;28;19935;-75
2022/11/14 12:45:34;;;;;;;;;;;;;;;-143.57;50.93;51221.47;5095880;28;19939;-74
2022/11/14 12:48:25;;;;;;;;;;;;;;;-143.57;46.23;51247.31;5086173;28;19946;-74
2022/11/14 12:51:23;;;;;;;;;;;;;;;-143.57;42.79;51263.22;5069971;28;19965;-74
2022/11/14 12:54:28;;;;;;;;;;;;;;;-143.57;39.87;51239.38;5082162;28;20271;-72
2022/11/14 12:57:46;;;;;;;;;;;;;;;-143.57;36.93;51195.63;5082100;28;19932;-75
2022/11/14 13:00:22;;;;;;;;;;;;;;;-143.57;37.63;51219.50;5080640;28;20325;-73
2022/11/14 13:03:29;;;;;;;;;;;;;;;-143.57;37.73;51273.16;5081963;28;19936;-73
2022/11/14 13:06:20;;;;;;;;;;;;;;;-143.57;36.58;51215.53;5066997;28;20017;-75
2022/11/14 13:09:24;;;;;;;;;;;;;;;-143.57;36.29;51263.22;5068094;28;20016;-75
2022/11/14 13:22:20;;;;;;;;;;;;;;;-143.57;35.97;51235.41;5069178;28;19935;-75
2022/11/14 13:25:16;;;;;;;;;;;;;;;-143.57;36.31;51241.34;5080400;28;19935;-75
2022/11/14 13:28:20;;;;;;;;;;;;;;;-143.57;36.35;51263.22;5063603;28;19936;-71
2022/11/14 13:31:15;;;;;;;;;;;;;;;-143.57;35.40;51213.53;5083117;28;20020;-71
2022/11/14 13:34:20;;;;;;;;;;;;;;;-143.57;35.35;51235.41;5085551;28;19935;-70
2022/11/14 13:37:24;;;;;;;;;;;;;;;-143.57;36.16;51203.59;5082501;28;19934;-70
2022/11/14 13:40:22;;;;;;;;;;;;;;;-143.57;35.04;51223.47;5082969;28;19931;-70
2022/11/14 13:43:26;;;;;;;;;;;;;;;-143.57;34.59;51223.47;5083622;28;19931;-71
2022/11/14 13:46:15;;;;;;;;;;;;;;;-143.57;34.90;51221.47;5083536;28;20065;-70
2022/11/14 13:49:00;;;;;;;;;;;;;;;-143.57;34.67;51227.44;5083879;28;19980;-71
2022/11/14 13:51:45;;;;;;;;;;;;;;;-143.57;34.08;51211.53;5083022;28;19961;-72
2022/11/14 13:54:31;;;;;;;;;;;;;;;-143.57;35.29;51199.63;5084122;28;20448;-71
2022/11/14 13:57:27;;;;;;;;;;;;;;;-143.57;36.96;51211.53;5082658;28;20065;-70
2022/11/14 14:00:16;;;;;;;;;;;;;;;-143.57;39.43;51223.47;5083512;28;20454;-70
2022/11/14 14:03:11;;;;;;;;;;;;;;;-143.57;41.59;51211.53;5083894;28;20344;-70
2022/11/14 14:06:02;;;;;;;;;;;;;;;-143.57;43.20;51231.41;5081559;28;20739;-70
2022/11/14 14:08:59;;;;;;;;;;;;;;;-143.57;45.83;51267.19;5084468;28;19955;-69
2022/11/14 14:11:54;;;;;;;;;;;;;;;-143.57;46.45;51213.53;5089805;28;19939;-69
2022/11/14 14:14:47;;;;;;;;;;;;;;;-143.57;43.31;51279.13;5085906;28;20427;-70
2022/11/14 14:17:52;;;;;;;;;;;;;;;-143.57;41.08;51239.38;5084255;28;20465;-69